sensor_id;sensor_type;location;lat;lon;timestamp;pressure;altitude;pressure_sealevel;temperature
63009;BMP280;49099;28.428;-16.488;2022-12-29T00:00:55;98972.31;;;22.02
63009;BMP280;49099;28.428;-16.488;2022-12-29T00:03:23;98966.22;;;22.01
63009;BMP280;49099;28.428;-16.488;2022-12-29T00:05:56;98973.47;;;21.95
63009;BMP280;49099;28.428;-16.488;2022-12-29T00:08:24;98972.00;;;21.94
63009;BMP280;49099;28.428;-16.488;2022-12-29T00:11:14;98971.00;;;21.92
63009;BMP280;49099;28.428;-16.488;2022-12-29T00:13:42;98970.00;;;21.89
63009;BMP280;49099;28.428;-16.488;2022-12-29T00:16:28;98965.41;;;21.90
63009;BMP280;49099;28.428;-16.488;2022-12-29T00:18:56;98965.16;;;21.93
63009;BMP280;49099;28.428;-16.488;2022-12-29T00:21:23;98969.81;;;21.93
63009;BMP280;49099;28.428;-16.488;2022-12-29T00:24:13;98977.34;;;21.94
63009;BMP280;49099;28.428;-16.488;2022-12-29T00:29:49;98982.03;;;21.99
63009;BMP280;49099;28.428;-16.488;2022-12-29T00:32:52;98981.00;;;21.97
63009;BMP280;49099;28.428;-16.488;2022-12-29T00:35:56;98979.34;;;21.99
63009;BMP280;49099;28.428;-16.488;2022-12-29T00:38:25;98984.16;;;21.95
63009;BMP280;49099;28.428;-16.488;2022-12-29T00:41:11;98975.34;;;21.89
63009;BMP280;49099;28.428;-16.488;2022-12-29T00:43:57;98972.16;;;21.85
63009;BMP280;49099;28.428;-16.488;2022-12-29T00:46:33;98969.50;;;21.85
63009;BMP280;49099;28.428;-16.488;2022-12-29T00:49:02;98974.84;;;21.85
63009;BMP280;49099;28.428;-16.488;2022-12-29T00:51:48;98970.50;;;21.88
63009;BMP280;49099;28.428;-16.488;2022-12-29T00:54:16;98961.75;;;21.87
63009;BMP280;49099;28.428;-16.488;2022-12-29T00:56:49;98966.84;;;21.91
63009;BMP280;49099;28.428;-16.488;2022-12-29T00:59:18;98954.72;;;21.95
63009;BMP280;49099;28.428;-16.488;2022-12-29T01:01:46;98954.03;;;21.95
63009;BMP280;49099;28.428;-16.488;2022-12-29T01:04:13;98949.13;;;21.93
63009;BMP280;49099;28.428;-16.488;2022-12-29T01:06:41;98939.16;;;21.94
63009;BMP280;49099;28.428;-16.488;2022-12-29T01:09:09;98941.09;;;21.93
63009;BMP280;49099;28.428;-16.488;2022-12-29T01:11:55;98939.66;;;21.98
63009;BMP280;49099;28.428;-16.488;2022-12-29T01:14:22;98933.16;;;22.04
63009;BMP280;49099;28.428;-16.488;2022-12-29T01:16:50;98937.06;;;22.09
63009;BMP280;49099;28.428;-16.488;2022-12-29T01:19:19;98925.91;;;22.10
63009;BMP280;49099;28.428;-16.488;2022-12-29T01:21:46;98930.28;;;22.13
63009;BMP280;49099;28.428;-16.488;2022-12-29T01:24:15;98924.91;;;22.13
63009;BMP280;49099;28.428;-16.488;2022-12-29T01:26:43;98949.00;;;22.13
63009;BMP280;49099;28.428;-16.488;2022-12-29T01:29:11;98902.56;;;22.11
63009;BMP280;49099;28.428;-16.488;2022-12-29T01:31:38;98924.41;;;22.09
63009;BMP280;49099;28.428;-16.488;2022-12-29T01:34:05;98918.31;;;22.09
63009;BMP280;49099;28.428;-16.488;2022-12-29T01:36:33;98908.59;;;22.06
63009;BMP280;49099;28.428;-16.488;2022-12-29T01:39:01;98924.91;;;22.08
63009;BMP280;49099;28.428;-16.488;2022-12-29T01:41:28;98913.97;;;22.11
63009;BMP280;49099;28.428;-16.488;2022-12-29T01:43:58;98924.66;;;22.06
63009;BMP280;49099;28.428;-16.488;2022-12-29T01:46:38;98903.47;;;22.02
63009;BMP280;49099;28.428;-16.488;2022-12-29T01:49:19;98907.88;;;22.05
63009;BMP280;49099;28.428;-16.488;2022-12-29T01:54:24;98902.75;;;22.02
63009;BMP280;49099;28.428;-16.488;2022-12-29T01:56:53;98912.72;;;22.01
63009;BMP280;49099;28.428;-16.488;2022-12-29T01:59:26;98897.88;;;22.00
63009;BMP280;49099;28.428;-16.488;2022-12-29T02:01:54;98905.91;;;22.00
63009;BMP280;49099;28.428;-16.488;2022-12-29T02:04:23;98895.19;;;22.00
63009;BMP280;49099;28.428;-16.488;2022-12-29T02:06:55;98905.63;;;21.98
63009;BMP280;49099;28.428;-16.488;2022-12-29T02:09:24;98927.03;;;21.98
63009;BMP280;49099;28.428;-16.488;2022-12-29T02:11:51;98896.13;;;21.97
63009;BMP280;49099;28.428;-16.488;2022-12-29T02:14:19;98902.75;;;22.02
63009;BMP280;49099;28.428;-16.488;2022-12-29T02:16:54;98924.19;;;22.07
63009;BMP280;49099;28.428;-16.488;2022-12-29T02:36:51;98902.94;;;22.40
63009;BMP280;49099;28.428;-16.488;2022-12-29T02:39:45;98907.81;;;22.42
63009;BMP280;49099;28.428;-16.488;2022-12-29T02:42:32;98921.91;;;22.42
63009;BMP280;49099;28.428;-16.488;2022-12-29T02:45:11;98937.97;;;22.42
63009;BMP280;49099;28.428;-16.488;2022-12-29T02:50:17;98891.75;;;22.42
63009;BMP280;49099;28.428;-16.488;2022-12-29T02:52:57;98894.44;;;22.42
63009;BMP280;49099;28.428;-16.488;2022-12-29T02:55:25;98893.69;;;22.41
63009;BMP280;49099;28.428;-16.488;2022-12-29T02:58:19;98895.34;;;22.39
63009;BMP280;49099;28.428;-16.488;2022-12-29T03:07:32;98884.66;;;22.39
63009;BMP280;49099;28.428;-16.488;2022-12-29T03:09:40;98883.22;;;22.43
63009;BMP280;49099;28.428;-16.488;2022-12-29T03:15:18;98872.50;;;22.43
63009;BMP280;49099;28.428;-16.488;2022-12-29T03:18:06;98879.25;;;22.28
63009;BMP280;49099;28.428;-16.488;2022-12-29T03:20:44;98879.72;;;22.15
63009;BMP280;49099;28.428;-16.488;2022-12-29T03:23:16;98887.94;;;22.06
63009;BMP280;49099;28.428;-16.488;2022-12-29T03:25:48;98901.47;;;21.97
63009;BMP280;49099;28.428;-16.488;2022-12-29T03:28:23;98873.50;;;21.93
63009;BMP280;49099;28.428;-16.488;2022-12-29T03:30:51;98883.72;;;21.94
63009;BMP280;49099;28.428;-16.488;2022-12-29T03:33:22;98883.75;;;22.00
63009;BMP280;49099;28.428;-16.488;2022-12-29T03:35:53;98913.22;;;22.05
63009;BMP280;49099;28.428;-16.488;2022-12-29T03:38:25;98892.31;;;22.09
63009;BMP280;49099;28.428;-16.488;2022-12-29T03:40:59;98896.47;;;22.10
63009;BMP280;49099;28.428;-16.488;2022-12-29T03:43:27;98916.16;;;22.07
63009;BMP280;49099;28.428;-16.488;2022-12-29T03:45:55;98902.75;;;22.02
63009;BMP280;49099;28.428;-16.488;2022-12-29T03:48:22;98891.31;;;22.01
63009;BMP280;49099;28.428;-16.488;2022-12-29T03:50:49;98899.34;;;22.07
63009;BMP280;49099;28.428;-16.488;2022-12-29T03:53:17;98882.34;;;22.10
63009;BMP280;49099;28.428;-16.488;2022-12-29T03:55:44;98884.53;;;22.11
63009;BMP280;49099;28.428;-16.488;2022-12-29T03:58:11;98905.00;;;22.14
63009;BMP280;49099;28.428;-16.488;2022-12-29T04:00:38;98887.75;;;22.15
63009;BMP280;49099;28.428;-16.488;2022-12-29T04:03:05;98896.28;;;22.19
63009;BMP280;49099;28.428;-16.488;2022-12-29T04:05:32;98889.00;;;22.25
63009;BMP280;49099;28.428;-16.488;2022-12-29T04:08:01;98890.69;;;22.28
63009;BMP280;49099;28.428;-16.488;2022-12-29T04:10:28;98872.47;;;22.32
63009;BMP280;49099;28.428;-16.488;2022-12-29T04:12:55;98873.22;;;22.33
63009;BMP280;49099;28.428;-16.488;2022-12-29T04:15:22;98868.06;;;22.29
63009;BMP280;49099;28.428;-16.488;2022-12-29T04:17:51;98884.38;;;22.26
63009;BMP280;49099;28.428;-16.488;2022-12-29T04:20:18;98895.31;;;22.22
63009;BMP280;49099;28.428;-16.488;2022-12-29T04:23:05;98880.72;;;22.23
63009;BMP280;49099;28.428;-16.488;2022-12-29T04:25:33;98896.03;;;22.23
63009;BMP280;49099;28.428;-16.488;2022-12-29T04:28:01;98902.56;;;22.16
63009;BMP280;49099;28.428;-16.488;2022-12-29T04:30:28;98884.56;;;22.17
63009;BMP280;49099;28.428;-16.488;2022-12-29T04:32:55;98899.13;;;22.16
63009;BMP280;49099;28.428;-16.488;2022-12-29T04:35:22;98889.91;;;22.17
63009;BMP280;49099;28.428;-16.488;2022-12-29T04:37:49;98891.13;;;22.16
63009;BMP280;49099;28.428;-16.488;2022-12-29T04:40:16;98897.94;;;22.11
63009;BMP280;49099;28.428;-16.488;2022-12-29T04:42:43;98895.25;;;22.11
63009;BMP280;49099;28.428;-16.488;2022-12-29T04:45:10;98893.78;;;22.10
63009;BMP280;49099;28.428;-16.488;2022-12-29T04:47:38;98898.41;;;22.10
63009;BMP280;49099;28.428;-16.488;2022-12-29T04:50:05;98903.25;;;22.06
63009;BMP280;49099;28.428;-16.488;2022-12-29T04:52:33;98913.66;;;21.98
63009;BMP280;49099;28.428;-16.488;2022-12-29T04:55:00;98921.91;;;21.95
63009;BMP280;49099;28.428;-16.488;2022-12-29T04:57:27;98924.03;;;21.85
63009;BMP280;49099;28.428;-16.488;2022-12-29T04:59:54;98926.63;;;21.74
63009;BMP280;49099;28.428;-16.488;2022-12-29T05:02:21;98919.22;;;21.58
63009;BMP280;49099;28.428;-16.488;2022-12-29T05:04:48;98917.47;;;21.50
63009;BMP280;49099;28.428;-16.488;2022-12-29T05:07:16;98935.66;;;21.46
63009;BMP280;49099;28.428;-16.488;2022-12-29T05:09:43;98927.88;;;21.42
63009;BMP280;49099;28.428;-16.488;2022-12-29T05:12:10;98926.84;;;21.40
63009;BMP280;49099;28.428;-16.488;2022-12-29T05:14:38;98928.00;;;21.33
63009;BMP280;49099;28.428;-16.488;2022-12-29T05:17:05;98921.66;;;21.31
63009;BMP280;49099;28.428;-16.488;2022-12-29T05:19:33;98918.53;;;21.32
63009;BMP280;49099;28.428;-16.488;2022-12-29T05:22:00;98915.56;;;21.30
63009;BMP280;49099;28.428;-16.488;2022-12-29T05:24:27;98923.34;;;21.28
63009;BMP280;49099;28.428;-16.488;2022-12-29T05:26:54;98920.44;;;21.26
63009;BMP280;49099;28.428;-16.488;2022-12-29T05:29:21;98922.09;;;21.24
63009;BMP280;49099;28.428;-16.488;2022-12-29T05:31:48;98920.59;;;21.23
63009;BMP280;49099;28.428;-16.488;2022-12-29T05:34:16;98920.59;;;21.23
63009;BMP280;49099;28.428;-16.488;2022-12-29T05:36:43;98918.66;;;21.23
63009;BMP280;49099;28.428;-16.488;2022-12-29T05:39:10;98920.22;;;21.30
63009;BMP280;49099;28.428;-16.488;2022-12-29T05:41:37;98918.53;;;21.32
63009;BMP280;49099;28.428;-16.488;2022-12-29T05:44:05;98924.38;;;21.36
63009;BMP280;49099;28.428;-16.488;2022-12-29T05:46:32;98925.88;;;21.37
63009;BMP280;49099;28.428;-16.488;2022-12-29T05:48:59;98919.53;;;21.40
63009;BMP280;49099;28.428;-16.488;2022-12-29T05:51:26;98918.59;;;21.43
63009;BMP280;49099;28.428;-16.488;2022-12-29T05:53:53;98927.38;;;21.44
63009;BMP280;49099;28.428;-16.488;2022-12-29T05:56:20;98929.09;;;21.47
63009;BMP280;49099;28.428;-16.488;2022-12-29T05:58:47;98928.63;;;21.48
63009;BMP280;49099;28.428;-16.488;2022-12-29T06:01:14;98937.66;;;21.56
63009;BMP280;49099;28.428;-16.488;2022-12-29T06:03:42;98936.50;;;21.63
63009;BMP280;49099;28.428;-16.488;2022-12-29T06:06:14;98940.44;;;21.67
63009;BMP280;49099;28.428;-16.488;2022-12-29T06:08:41;98937.78;;;21.67
63009;BMP280;49099;28.428;-16.488;2022-12-29T06:11:09;98940.88;;;21.66
63009;BMP280;49099;28.428;-16.488;2022-12-29T06:13:36;98941.16;;;21.68
63009;BMP280;49099;28.428;-16.488;2022-12-29T06:16:04;98937.22;;;21.63
63009;BMP280;49099;28.428;-16.488;2022-12-29T06:18:31;98935.78;;;21.62
63009;BMP280;49099;28.428;-16.488;2022-12-29T06:21:03;98939.91;;;21.63
63009;BMP280;49099;28.428;-16.488;2022-12-29T06:23:30;98929.22;;;21.63
63009;BMP280;49099;28.428;-16.488;2022-12-29T06:25:57;98932.31;;;21.56
63009;BMP280;49099;28.428;-16.488;2022-12-29T06:28:24;98927.94;;;21.53
63009;BMP280;49099;28.428;-16.488;2022-12-29T06:30:52;98939.38;;;21.54
63009;BMP280;49099;28.428;-16.488;2022-12-29T06:33:19;98936.63;;;21.48
63009;BMP280;49099;28.428;-16.488;2022-12-29T06:35:46;98939.03;;;21.46
63009;BMP280;49099;28.428;-16.488;2022-12-29T06:38:13;98946.59;;;21.48
63009;BMP280;49099;28.428;-16.488;2022-12-29T06:40:42;98935.69;;;21.51
63009;BMP280;49099;28.428;-16.488;2022-12-29T06:43:11;98945.31;;;21.43
63009;BMP280;49099;28.428;-16.488;2022-12-29T06:45:39;98959.59;;;21.35
63009;BMP280;49099;28.428;-16.488;2022-12-29T06:48:07;98952.59;;;21.37
63009;BMP280;49099;28.428;-16.488;2022-12-29T06:50:34;98964.47;;;21.36
63009;BMP280;49099;28.428;-16.488;2022-12-29T06:53:02;98970.31;;;21.40
63009;BMP280;49099;28.428;-16.488;2022-12-29T06:55:29;98976.13;;;21.39
63009;BMP280;49099;28.428;-16.488;2022-12-29T06:57:57;98980.06;;;21.43
63009;BMP280;49099;28.428;-16.488;2022-12-29T07:00:25;98971.84;;;21.47
63009;BMP280;49099;28.428;-16.488;2022-12-29T07:02:54;98979.13;;;21.46
63009;BMP280;49099;28.428;-16.488;2022-12-29T07:05:22;98992.50;;;21.46
63009;BMP280;49099;28.428;-16.488;2022-12-29T07:07:49;98992.19;;;21.39
63009;BMP280;49099;28.428;-16.488;2022-12-29T07:10:16;98987.31;;;21.37
63009;BMP280;49099;28.428;-16.488;2022-12-29T07:12:43;98997.75;;;21.35
63009;BMP280;49099;28.428;-16.488;2022-12-29T07:15:10;98997.75;;;21.35
63009;BMP280;49099;28.428;-16.488;2022-12-29T07:17:37;99006.84;;;21.23
63009;BMP280;49099;28.428;-16.488;2022-12-29T07:20:06;99006.00;;;21.12
63009;BMP280;49099;28.428;-16.488;2022-12-29T07:22:33;98994.03;;;21.07
63009;BMP280;49099;28.428;-16.488;2022-12-29T07:25:00;98999.38;;;21.07
63009;BMP280;49099;28.428;-16.488;2022-12-29T07:27:27;98997.91;;;21.06
63009;BMP280;49099;28.428;-16.488;2022-12-29T07:29:54;99007.34;;;21.02
63009;BMP280;49099;28.428;-16.488;2022-12-29T07:32:21;99005.13;;;21.00
63009;BMP280;49099;28.428;-16.488;2022-12-29T07:34:49;98995.63;;;20.99
63009;BMP280;49099;28.428;-16.488;2022-12-29T07:37:16;99004.38;;;21.00
63009;BMP280;49099;28.428;-16.488;2022-12-29T07:39:43;98999.78;;;21.00
63009;BMP280;49099;28.428;-16.488;2022-12-29T07:42:11;99015.59;;;21.04
63009;BMP280;49099;28.428;-16.488;2022-12-29T07:44:38;99002.56;;;21.11
63009;BMP280;49099;28.428;-16.488;2022-12-29T07:47:05;99001.41;;;21.12
63009;BMP280;49099;28.428;-16.488;2022-12-29T07:49:32;99003.38;;;21.17
63009;BMP280;49099;28.428;-16.488;2022-12-29T07:51:59;99011.66;;;21.19
63009;BMP280;49099;28.428;-16.488;2022-12-29T07:54:27;99019.69;;;21.19
63009;BMP280;49099;28.428;-16.488;2022-12-29T07:56:54;99019.00;;;21.24
63009;BMP280;49099;28.428;-16.488;2022-12-29T07:59:21;99014.72;;;21.32
63009;BMP280;49099;28.428;-16.488;2022-12-29T08:01:49;99020.81;;;21.33
63009;BMP280;49099;28.428;-16.488;2022-12-29T08:04:17;99029.53;;;21.33
63009;BMP280;49099;28.428;-16.488;2022-12-29T08:06:44;99031.28;;;21.36
63009;BMP280;49099;28.428;-16.488;2022-12-29T08:09:12;99043.47;;;21.43
63009;BMP280;49099;28.428;-16.488;2022-12-29T08:11:48;99047.38;;;21.42
63009;BMP280;49099;28.428;-16.488;2022-12-29T08:14:15;99056.41;;;21.44
63009;BMP280;49099;28.428;-16.488;2022-12-29T08:16:42;99063.00;;;21.49
63009;BMP280;49099;28.428;-16.488;2022-12-29T08:19:12;99068.13;;;21.52
63009;BMP280;49099;28.428;-16.488;2022-12-29T08:21:40;99065.97;;;21.56
63009;BMP280;49099;28.428;-16.488;2022-12-29T08:24:08;99065.03;;;21.59
63009;BMP280;49099;28.428;-16.488;2022-12-29T08:26:35;99064.53;;;21.55
63009;BMP280;49099;28.428;-16.488;2022-12-29T08:29:02;99074.69;;;21.51
63009;BMP280;49099;28.428;-16.488;2022-12-29T08:31:29;99087.78;;;21.49
63009;BMP280;49099;28.428;-16.488;2022-12-29T08:33:56;99089.75;;;21.54
63009;BMP280;49099;28.428;-16.488;2022-12-29T08:36:23;99084.50;;;21.60
63009;BMP280;49099;28.428;-16.488;2022-12-29T08:38:51;99073.84;;;21.65
63009;BMP280;49099;28.428;-16.488;2022-12-29T08:41:18;99072.63;;;21.66
63009;BMP280;49099;28.428;-16.488;2022-12-29T08:43:49;99085.75;;;21.64
63009;BMP280;49099;28.428;-16.488;2022-12-29T08:46:17;99083.59;;;21.68
63009;BMP280;49099;28.428;-16.488;2022-12-29T08:48:44;99082.44;;;21.75
63009;BMP280;49099;28.428;-16.488;2022-12-29T08:51:12;99078.34;;;21.79
63009;BMP280;49099;28.428;-16.488;2022-12-29T08:53:39;99094.94;;;21.83
63009;BMP280;49099;28.428;-16.488;2022-12-29T08:56:08;99106.38;;;21.84
63009;BMP280;49099;28.428;-16.488;2022-12-29T08:58:36;99103.41;;;21.82
63009;BMP280;49099;28.428;-16.488;2022-12-29T09:01:03;99108.03;;;21.81
63009;BMP280;49099;28.428;-16.488;2022-12-29T09:03:30;99110.25;;;21.83
63009;BMP280;49099;28.428;-16.488;2022-12-29T09:06:17;99110.31;;;21.88
63009;BMP280;49099;28.428;-16.488;2022-12-29T09:08:44;99111.09;;;21.94
63009;BMP280;49099;28.428;-16.488;2022-12-29T09:13:41;99119.16;;;22.00
63009;BMP280;49099;28.428;-16.488;2022-12-29T09:16:08;99120.81;;;21.97
63009;BMP280;49099;28.428;-16.488;2022-12-29T09:18:36;99124.41;;;21.89
63009;BMP280;49099;28.428;-16.488;2022-12-29T09:21:05;99122.22;;;21.87
63009;BMP280;49099;28.428;-16.488;2022-12-29T09:23:33;99123.41;;;21.86
63009;BMP280;49099;28.428;-16.488;2022-12-29T09:26:01;99127.97;;;21.80
63009;BMP280;49099;28.428;-16.488;2022-12-29T09:28:29;99134.38;;;21.88
63009;BMP280;49099;28.428;-16.488;2022-12-29T09:30:57;99133.94;;;21.95
63009;BMP280;49099;28.428;-16.488;2022-12-29T09:33:24;99128.19;;;22.02
63009;BMP280;49099;28.428;-16.488;2022-12-29T09:35:56;99123.63;;;22.08
63009;BMP280;49099;28.428;-16.488;2022-12-29T09:38:25;99129.75;;;22.14
63009;BMP280;49099;28.428;-16.488;2022-12-29T09:41:41;99133.19;;;22.20
63009;BMP280;49099;28.428;-16.488;2022-12-29T09:46:44;99131.84;;;22.30
63009;BMP280;49099;28.428;-16.488;2022-12-29T09:49:35;99142.84;;;22.38
63009;BMP280;49099;28.428;-16.488;2022-12-29T09:52:13;99143.63;;;22.44
63009;BMP280;49099;28.428;-16.488;2022-12-29T09:54:51;99144.41;;;22.50
63009;BMP280;49099;28.428;-16.488;2022-12-29T09:58:02;99152.25;;;22.59
63009;BMP280;49099;28.428;-16.488;2022-12-29T10:01:23;99153.78;;;22.71
63009;BMP280;49099;28.428;-16.488;2022-12-29T10:03:52;99152.91;;;22.80
63009;BMP280;49099;28.428;-16.488;2022-12-29T10:06:32;99158.03;;;22.89
63009;BMP280;49099;28.428;-16.488;2022-12-29T10:09:48;99165.38;;;22.94
63009;BMP280;49099;28.428;-16.488;2022-12-29T10:23:47;99171.38;;;23.20
63009;BMP280;49099;28.428;-16.488;2022-12-29T10:26:41;99163.09;;;23.29
63009;BMP280;49099;28.428;-16.488;2022-12-29T10:29:29;99169.00;;;23.38
63009;BMP280;49099;28.428;-16.488;2022-12-29T10:32:03;99167.53;;;23.43
63009;BMP280;49099;28.428;-16.488;2022-12-29T10:34:39;99173.41;;;23.47
63009;BMP280;49099;28.428;-16.488;2022-12-29T10:37:29;99170.94;;;23.38
63009;BMP280;49099;28.428;-16.488;2022-12-29T10:40:11;99166.78;;;23.42
63009;BMP280;49099;28.428;-16.488;2022-12-29T10:42:45;99170.97;;;23.49
63009;BMP280;49099;28.428;-16.488;2022-12-29T10:45:15;99163.91;;;23.51
63009;BMP280;49099;28.428;-16.488;2022-12-29T10:48:22;99171.03;;;23.60
63009;BMP280;49099;28.428;-16.488;2022-12-29T10:50:59;99172.97;;;23.65
63009;BMP280;49099;28.428;-16.488;2022-12-29T10:53:39;99173.97;;;23.73
63009;BMP280;49099;28.428;-16.488;2022-12-29T10:59:24;99173.03;;;23.87
63009;BMP280;49099;28.428;-16.488;2022-12-29T11:02:00;99178.91;;;23.91
63009;BMP280;49099;28.428;-16.488;2022-12-29T11:07:18;99170.59;;;24.00
63009;BMP280;49099;28.428;-16.488;2022-12-29T11:09:53;99166.47;;;23.99
63009;BMP280;49099;28.428;-16.488;2022-12-29T11:12:24;99166.47;;;23.99
63009;BMP280;49099;28.428;-16.488;2022-12-29T11:15:11;99154.03;;;24.01
63009;BMP280;49099;28.428;-16.488;2022-12-29T11:17:53;99160.13;;;24.02
63009;BMP280;49099;28.428;-16.488;2022-12-29T11:20:33;99158.16;;;23.97
63009;BMP280;49099;28.428;-16.488;2022-12-29T11:23:02;99162.31;;;23.87
63009;BMP280;49099;28.428;-16.488;2022-12-29T11:25:30;99158.38;;;23.77
63009;BMP280;49099;28.428;-16.488;2022-12-29T11:28:02;99156.19;;;23.75
63009;BMP280;49099;28.428;-16.488;2022-12-29T11:30:31;99154.25;;;23.76
63009;BMP280;49099;28.428;-16.488;2022-12-29T11:33:02;99150.81;;;23.81
63009;BMP280;49099;28.428;-16.488;2022-12-29T11:35:43;99153.25;;;23.90
63009;BMP280;49099;28.428;-16.488;2022-12-29T11:38:20;99158.88;;;23.92
63009;BMP280;49099;28.428;-16.488;2022-12-29T11:40:48;99159.13;;;23.99
63009;BMP280;49099;28.428;-16.488;2022-12-29T11:43:37;99161.09;;;24.04
63009;BMP280;49099;28.428;-16.488;2022-12-29T11:46:05;99155.50;;;24.08
63009;BMP280;49099;28.428;-16.488;2022-12-29T11:48:40;99150.84;;;24.08
63009;BMP280;49099;28.428;-16.488;2022-12-29T11:51:08;99154.75;;;24.13
63009;BMP280;49099;28.428;-16.488;2022-12-29T11:53:43;99153.06;;;24.10
63009;BMP280;49099;28.428;-16.488;2022-12-29T11:56:14;99138.66;;;24.13
63009;BMP280;49099;28.428;-16.488;2022-12-29T11:58:42;99129.13;;;24.17
63009;BMP280;49099;28.428;-16.488;2022-12-29T12:01:28;99133.78;;;24.22
63009;BMP280;49099;28.428;-16.488;2022-12-29T12:04:12;99132.53;;;24.29
63009;BMP280;49099;28.428;-16.488;2022-12-29T12:06:48;99135.47;;;24.31
63009;BMP280;49099;28.428;-16.488;2022-12-29T12:09:57;99133.53;;;24.04
63009;BMP280;49099;28.428;-16.488;2022-12-29T12:13:19;99126.91;;;23.88
63009;BMP280;49099;28.428;-16.488;2022-12-29T12:15:36;99124.25;;;23.94
63009;BMP280;49099;28.428;-16.488;2022-12-29T12:18:37;99125.25;;;24.07
63009;BMP280;49099;28.428;-16.488;2022-12-29T12:23:45;99111.81;;;24.24
63009;BMP280;49099;28.428;-16.488;2022-12-29T12:34:06;99098.38;;;24.35
63009;BMP280;49099;28.428;-16.488;2022-12-29T12:36:53;99095.47;;;24.33
63009;BMP280;49099;28.428;-16.488;2022-12-29T12:39:49;99086.91;;;24.23
63009;BMP280;49099;28.428;-16.488;2022-12-29T12:42:40;99082.28;;;24.13
63009;BMP280;49099;28.428;-16.488;2022-12-29T13:07:50;99068.63;;;23.78
63009;BMP280;49099;28.428;-16.488;2022-12-29T13:10:50;99072.75;;;23.79
63009;BMP280;49099;28.428;-16.488;2022-12-29T13:19:27;99049.84;;;23.89
63009;BMP280;49099;28.428;-16.488;2022-12-29T13:27:37;99040.81;;;24.03
63009;BMP280;49099;28.428;-16.488;2022-12-29T13:30:18;99031.53;;;24.04
63009;BMP280;49099;28.428;-16.488;2022-12-29T13:38:20;99027.84;;;24.23
63009;BMP280;49099;28.428;-16.488;2022-12-29T13:40:59;99031.50;;;24.37
63009;BMP280;49099;28.428;-16.488;2022-12-29T13:43:29;99025.84;;;24.46
63009;BMP280;49099;28.428;-16.488;2022-12-29T13:46:07;99018.47;;;24.52
63009;BMP280;49099;28.428;-16.488;2022-12-29T13:48:55;99014.81;;;24.55
63009;BMP280;49099;28.428;-16.488;2022-12-29T13:51:24;99001.38;;;24.60
63009;BMP280;49099;28.428;-16.488;2022-12-29T13:57:05;98999.34;;;24.72
63009;BMP280;49099;28.428;-16.488;2022-12-29T14:02:17;98982.25;;;24.75
63009;BMP280;49099;28.428;-16.488;2022-12-29T14:05:00;98975.66;;;24.76
63009;BMP280;49099;28.428;-16.488;2022-12-29T14:07:29;98979.56;;;24.75
63009;BMP280;49099;28.428;-16.488;2022-12-29T14:09:57;98974.94;;;24.70
63009;BMP280;49099;28.428;-16.488;2022-12-29T14:12:31;98968.63;;;24.62
63009;BMP280;49099;28.428;-16.488;2022-12-29T14:17:37;98966.97;;;24.48
63009;BMP280;49099;28.428;-16.488;2022-12-29T14:20:16;98965.56;;;24.47
63009;BMP280;49099;28.428;-16.488;2022-12-29T14:23:26;98947.97;;;24.46
63009;BMP280;49099;28.428;-16.488;2022-12-29T14:26:10;98937.72;;;24.39
63009;BMP280;49099;28.428;-16.488;2022-12-29T14:28:39;98948.19;;;24.48
63009;BMP280;49099;28.428;-16.488;2022-12-29T14:36:38;98909.78;;;24.64
63009;BMP280;49099;28.428;-16.488;2022-12-29T14:39:40;98914.63;;;24.71
63009;BMP280;49099;28.428;-16.488;2022-12-29T14:45:21;98901.81;;;24.88
63009;BMP280;49099;28.428;-16.488;2022-12-29T14:47:53;98899.34;;;24.90
63009;BMP280;49099;28.428;-16.488;2022-12-29T14:52:56;98903.97;;;24.95
63009;BMP280;49099;28.428;-16.488;2022-12-29T14:55:43;98882.34;;;25.06
63009;BMP280;49099;28.428;-16.488;2022-12-29T14:58:28;98886.03;;;25.03
63009;BMP280;49099;28.428;-16.488;2022-12-29T15:00:58;98886.44;;;25.12
63009;BMP280;49099;28.428;-16.488;2022-12-29T15:03:32;98882.94;;;25.23
63009;BMP280;49099;28.428;-16.488;2022-12-29T15:06:07;98867.72;;;25.31
63009;BMP280;49099;28.428;-16.488;2022-12-29T15:08:44;98864.75;;;25.34
63009;BMP280;49099;28.428;-16.488;2022-12-29T15:11:17;98878.94;;;25.35
63009;BMP280;49099;28.428;-16.488;2022-12-29T15:13:45;98860.88;;;25.30
63009;BMP280;49099;28.428;-16.488;2022-12-29T15:16:25;98876.56;;;25.26
63009;BMP280;49099;28.428;-16.488;2022-12-29T15:18:53;98857.84;;;25.39
63009;BMP280;49099;28.428;-16.488;2022-12-29T15:21:30;98859.41;;;25.53
63009;BMP280;49099;28.428;-16.488;2022-12-29T15:23:58;98855.03;;;25.50
63009;BMP280;49099;28.428;-16.488;2022-12-29T15:27:02;98849.44;;;25.48
63009;BMP280;49099;28.428;-16.488;2022-12-29T15:29:37;98866.44;;;25.37
63009;BMP280;49099;28.428;-16.488;2022-12-29T15:32:27;98856.22;;;25.30
63009;BMP280;49099;28.428;-16.488;2022-12-29T15:34:57;98853.25;;;25.34
63009;BMP280;49099;28.428;-16.488;2022-12-29T15:37:33;98853.50;;;25.36
63009;BMP280;49099;28.428;-16.488;2022-12-29T15:40:02;98850.75;;;25.41
63009;BMP280;49099;28.428;-16.488;2022-12-29T15:45:13;98843.91;;;25.64
63009;BMP280;49099;28.428;-16.488;2022-12-29T15:47:42;98843.09;;;25.69
63009;BMP280;49099;28.428;-16.488;2022-12-29T15:50:29;98851.81;;;25.75
63009;BMP280;49099;28.428;-16.488;2022-12-29T15:52:57;98863.31;;;25.76
63009;BMP280;49099;28.428;-16.488;2022-12-29T15:55:33;98856.25;;;25.73
63009;BMP280;49099;28.428;-16.488;2022-12-29T15:58:05;98872.47;;;25.67
63009;BMP280;49099;28.428;-16.488;2022-12-29T16:00:34;98857.16;;;25.57
63009;BMP280;49099;28.428;-16.488;2022-12-29T16:03:05;98863.09;;;25.50
63009;BMP280;49099;28.428;-16.488;2022-12-29T16:05:38;98866.72;;;25.58
63009;BMP280;49099;28.428;-16.488;2022-12-29T16:08:27;98873.81;;;25.55
63009;BMP280;49099;28.428;-16.488;2022-12-29T16:10:56;98860.69;;;25.52
63009;BMP280;49099;28.428;-16.488;2022-12-29T16:13:28;98837.25;;;25.47
63009;BMP280;49099;28.428;-16.488;2022-12-29T16:18:36;98876.91;;;25.41
63009;BMP280;49099;28.428;-16.488;2022-12-29T16:21:05;98854.69;;;25.40
63009;BMP280;49099;28.428;-16.488;2022-12-29T16:23:36;98849.00;;;25.44
63009;BMP280;49099;28.428;-16.488;2022-12-29T16:26:04;98852.94;;;25.43
63009;BMP280;49099;28.428;-16.488;2022-12-29T16:28:41;98853.88;;;25.45